createdAt,value
2023-04-26T00:01:16.628Z,98983.41
2023-04-26T00:03:44.570Z,98978.22
2023-04-26T00:06:14.095Z,98977.38
2023-04-26T00:08:42.351Z,98976.34
2023-04-26T00:11:10.175Z,98982.81
2023-04-26T00:13:38.471Z,98990.75
2023-04-26T00:16:06.043Z,98997.28
2023-04-26T00:18:34.074Z,98987.22
2023-04-26T00:21:01.590Z,98991.59
2023-04-26T00:23:29.174Z,98989.94
2023-04-26T00:25:57.241Z,99000.81
2023-04-26T00:28:24.679Z,98997.28
2023-04-26T00:30:52.102Z,99002.72
2023-04-26T00:33:19.877Z,98998.09
2023-04-26T00:35:47.264Z,99010.87
2023-04-26T00:38:14.675Z,99009.22
2023-04-26T00:40:42.378Z,99017.37
2023-04-26T00:43:09.771Z,99014.44
2023-04-26T00:45:37.238Z,99019.03
2023-04-26T00:48:05.155Z,99019.28
2023-04-26T00:50:32.654Z,99016.53
2023-04-26T00:53:00.592Z,99021.16
2023-04-26T00:55:28.444Z,99021.16
2023-04-26T00:57:55.907Z,99022.00
2023-04-26T01:00:23.344Z,99023.88
2023-04-26T01:02:51.317Z,99027.69
2023-04-26T01:05:18.889Z,99027.69
2023-04-26T01:07:46.298Z,99024.97
2023-04-26T01:10:14.093Z,99033.13
2023-04-26T01:12:41.510Z,99026.88
2023-04-26T01:15:10.267Z,99024.97
2023-04-26T01:17:38.116Z,99024.13
2023-04-26T01:20:10.000Z,99026.88
2023-04-26T01:22:37.737Z,99029.81
2023-04-26T01:25:05.738Z,99028.75
2023-04-26T01:27:33.513Z,99036.09
2023-04-26T01:30:01.229Z,99045.09
2023-04-26T01:32:29.054Z,99046.97
2023-04-26T01:34:58.057Z,99048.84
2023-04-26T01:37:26.458Z,99052.44
2023-04-26T01:39:53.865Z,99054.28
2023-04-26T01:42:21.316Z,99049.72
2023-04-26T01:44:49.047Z,99057.00
2023-04-26T01:47:16.536Z,99053.47
2023-04-26T01:49:43.946Z,99060.59
2023-04-26T01:52:11.629Z,99063.31
2023-04-26T01:54:39.077Z,99063.31
2023-04-26T01:57:06.889Z,99058.09
2023-04-26T01:59:34.569Z,99063.53
2023-04-26T02:02:02.189Z,99062.72
2023-04-26T02:04:30.091Z,99068.97
2023-04-26T02:06:57.569Z,99066.25
2023-04-26T02:09:25.013Z,99071.94
2023-04-26T02:11:52.661Z,99071.13
2023-04-26T02:14:20.383Z,99068.41
2023-04-26T02:16:49.449Z,99076.56
2023-04-26T02:19:17.347Z,99071.69
2023-04-26T02:22:11.124Z,99063.78
2023-04-26T02:24:41.991Z,99070.63
2023-04-26T02:27:09.433Z,99069.22
2023-04-26T02:29:43.521Z,99073.03
2023-04-26T02:32:13.119Z,99079.50
2023-04-26T02:34:41.049Z,99076.78
2023-04-26T02:37:09.044Z,99083.91
2023-04-26T02:39:36.550Z,99079.50
2023-04-26T02:42:04.372Z,99076.78
2023-04-26T02:44:31.788Z,99081.41
2023-04-26T02:46:59.279Z,99080.13
2023-04-26T02:49:27.169Z,99078.47
2023-04-26T02:51:54.692Z,99075.12
2023-04-26T02:54:22.208Z,99083.91
2023-04-26T02:56:49.933Z,99082.22
2023-04-26T02:59:17.403Z,99085.19
2023-04-26T03:01:45.061Z,99096.91
2023-04-26T03:04:12.969Z,99097.16
2023-04-26T03:06:40.957Z,99099.63
2023-04-26T03:09:08.440Z,99109.69
2023-04-26T03:11:36.362Z,99106.97
2023-04-26T03:14:03.775Z,99113.47
2023-04-26T03:16:31.831Z,99113.47
2023-04-26T03:18:59.658Z,99126.25
2023-04-26T03:21:27.956Z,99127.34
2023-04-26T03:23:55.531Z,99132.53
2023-04-26T03:26:23.281Z,99128.97
2023-04-26T03:28:51.838Z,99129.19
2023-04-26T03:31:21.341Z,99145.53
2023-04-26T03:33:49.039Z,99139.87
2023-04-26T03:36:17.309Z,99146.13
2023-04-26T03:38:44.830Z,99147.44
2023-04-26T03:41:13.747Z,99145.53
2023-04-26T03:43:41.219Z,99148.25
2023-04-26T03:46:08.724Z,99152.88
2023-04-26T03:48:36.604Z,99154.75
2023-04-26T03:51:04.008Z,99153.94
2023-04-26T03:53:31.523Z,99146.84
2023-04-26T03:55:59.245Z,99152.28
2023-04-26T03:58:26.814Z,99165.91
2023-04-26T04:00:58.354Z,99156.91
2023-04-26T04:03:26.717Z,99165.91
2023-04-26T04:05:54.276Z,99160.44
2023-04-26T04:08:21.776Z,99169.44
2023-04-26T04:10:49.737Z,99167.78
2023-04-26T04:13:17.124Z,99176.78
2023-04-26T04:15:44.627Z,99176.78
2023-04-26T04:18:13.486Z,99180.56
2023-04-26T04:20:41.697Z,99193.09
2023-04-26T04:23:09.990Z,99195.81
2023-04-26T04:25:38.972Z,99200.44
2023-04-26T04:28:06.578Z,99205.63
2023-04-26T04:30:34.424Z,99215.13
2023-04-26T04:33:03.383Z,99215.94
2023-04-26T04:35:33.639Z,99214.25
2023-04-26T04:38:03.107Z,99215.31
2023-04-26T04:40:33.684Z,99225.13
2023-04-26T04:43:02.170Z,99223.50
2023-04-26T04:45:30.435Z,99230.81
2023-04-26T04:47:58.299Z,99225.63
2023-04-26T04:50:27.158Z,99230.81
2023-04-26T04:52:54.652Z,99238.16
2023-04-26T04:55:22.481Z,99246.31
2023-04-26T04:57:50.103Z,99245.50
2023-04-26T05:00:18.009Z,99244.69
2023-04-26T05:02:46.307Z,99247.63
2023-04-26T05:05:14.034Z,99248.66
2023-04-26T05:07:41.501Z,99252.22
2023-04-26T05:10:09.887Z,99254.34
2023-04-26T05:12:37.472Z,99258.94
2023-04-26T05:15:05.364Z,99258.12
2023-04-26T05:17:33.989Z,99259.19
2023-04-26T05:20:06.806Z,99263.78
2023-04-26T05:22:36.812Z,99266.50
2023-04-26T05:25:05.326Z,99263.78
2023-04-26T05:27:32.812Z,99265.12
2023-04-26T05:30:05.803Z,99267.94
2023-04-26T05:32:33.542Z,99268.41
2023-04-26T05:35:01.746Z,99272.19
2023-04-26T05:37:31.717Z,99272.19
2023-04-26T05:39:59.172Z,99270.28
2023-04-26T05:42:27.024Z,99269.47
2023-04-26T05:45:00.640Z,99267.00
2023-04-26T05:47:28.248Z,99279.53
2023-04-26T05:49:56.091Z,99272.44
2023-04-26T05:52:23.547Z,99270.53
2023-04-26T05:54:52.554Z,99274.31
2023-04-26T05:57:20.208Z,99271.38
2023-04-26T05:59:48.181Z,99270.78
2023-04-26T06:02:16.815Z,99278.94
2023-04-26T06:04:44.767Z,99276.44
2023-04-26T06:07:12.800Z,99282.69
2023-04-26T06:09:40.314Z,99290.88
2023-04-26T06:12:08.060Z,99293.59
2023-04-26T06:14:36.000Z,99287.56
2023-04-26T06:17:03.924Z,99284.59
2023-04-26T06:19:31.712Z,99288.38
2023-04-26T06:21:59.226Z,99297.63
2023-04-26T06:24:26.783Z,99285.91
2023-04-26T06:26:54.545Z,99289.47
2023-04-26T06:29:22.463Z,99283.41
2023-04-26T06:31:51.409Z,99294.28
2023-04-26T06:34:19.408Z,99285.09
2023-04-26T06:36:47.422Z,99285.31
2023-04-26T06:39:15.514Z,99291.81
2023-04-26T06:41:43.490Z,99291.81
2023-04-26T06:44:11.537Z,99298.06
2023-04-26T06:46:42.491Z,99296.41
2023-04-26T06:49:11.608Z,99297.25
2023-04-26T06:51:39.177Z,99296.41
2023-04-26T06:54:06.935Z,99295.59
2023-04-26T06:56:34.604Z,99298.31
2023-04-26T06:59:03.324Z,99301.03
2023-04-26T07:01:33.768Z,99296.66
2023-04-26T07:04:03.848Z,99306.47
2023-04-26T07:06:31.478Z,99305.66
2023-04-26T07:09:01.163Z,99301.88
2023-04-26T07:11:29.454Z,99305.41
2023-04-26T07:13:57.167Z,99305.16
2023-04-26T07:16:24.693Z,99305.16
2023-04-26T07:18:58.402Z,99300.56
2023-04-26T07:21:26.956Z,99301.41
2023-04-26T07:23:58.180Z,99316.41
2023-04-26T07:26:26.690Z,99323.50
2023-04-26T07:28:54.255Z,99332.28
2023-04-26T07:31:21.997Z,99325.53
2023-04-26T07:33:49.552Z,99320.09
2023-04-26T07:36:17.187Z,99333.47
2023-04-26T07:38:44.933Z,99344.09
2023-04-26T07:41:13.105Z,99332.41
2023-04-26T07:43:40.632Z,99332.16
2023-04-26T07:46:08.440Z,99329.22
2023-04-26T07:48:36.245Z,99336.34
2023-04-26T07:51:13.011Z,99330.66
2023-04-26T07:53:41.264Z,99326.66
2023-04-26T07:56:09.059Z,99342.97
2023-04-26T07:58:36.913Z,99333.75
2023-04-26T08:01:04.626Z,99342.75
2023-04-26T08:03:32.744Z,99344.38
2023-04-26T08:06:01.401Z,99356.91
2023-04-26T08:08:29.029Z,99357.75
2023-04-26T08:10:56.789Z,99354.81
2023-04-26T08:13:28.597Z,99356.22
2023-04-26T08:15:57.114Z,99362.47
2023-04-26T08:18:24.558Z,99366.88
2023-04-26T08:20:52.180Z,99372.34
2023-04-26T08:23:19.920Z,99355.75
2023-04-26T08:25:47.966Z,99364.75
2023-04-26T08:28:16.171Z,99356.59
2023-04-26T08:30:43.908Z,99377.28
2023-04-26T08:33:11.383Z,99378.09
2023-04-26T08:35:38.846Z,99373.53
2023-04-26T08:38:06.536Z,99381.69
2023-04-26T08:40:34.136Z,99378.09
2023-04-26T08:43:01.552Z,99381.69
2023-04-26T08:45:29.260Z,99365.38
2023-04-26T08:48:09.255Z,99365.38
2023-04-26T08:50:37.308Z,99378.97
2023-04-26T08:53:04.790Z,99395.28
2023-04-26T08:55:32.213Z,99389.00
2023-04-26T08:57:59.867Z,99387.12
2023-04-26T09:00:27.464Z,99401.56
2023-04-26T09:02:54.955Z,99395.28
2023-04-26T09:05:24.712Z,99395.28
2023-04-26T09:07:56.356Z,99392.56
2023-04-26T09:10:24.347Z,99397.16
2023-04-26T09:12:52.832Z,99398.00
2023-04-26T09:15:27.107Z,99385.44
2023-04-26T09:17:54.866Z,99386.28
2023-04-26T09:20:26.384Z,99379.19
2023-04-26T09:23:07.106Z,99378.34
2023-04-26T09:25:35.171Z,99391.97
2023-04-26T09:28:03.779Z,99384.88
2023-04-26T09:30:32.248Z,99375.63
2023-04-26T09:33:04.668Z,99384.88
2023-04-26T09:35:33.418Z,99381.31
2023-04-26T09:38:07.975Z,99387.59
2023-04-26T09:40:40.697Z,99372.34
2023-04-26T09:43:11.604Z,99389.69
2023-04-26T09:45:58.774Z,99378.81
2023-04-26T09:48:30.960Z,99381.31
2023-04-26T09:50:59.608Z,99390.75
2023-04-26T09:53:31.698Z,99387.22
2023-04-26T09:56:09.140Z,99372.78
2023-04-26T09:58:58.912Z,99367.09
2023-04-26T10:01:30.071Z,99377.41
2023-04-26T10:03:59.607Z,99371.97
2023-04-26T10:06:28.347Z,99369.50
2023-04-26T10:08:56.293Z,99375.97
2023-04-26T10:11:24.386Z,99373.25
2023-04-26T10:13:52.080Z,99393.38
2023-04-26T10:16:21.030Z,99377.84
2023-04-26T10:18:49.445Z,99388.16
2023-04-26T10:21:21.493Z,99378.09
2023-04-26T10:23:49.177Z,99372.91
2023-04-26T10:26:57.483Z,99367.47
2023-04-26T10:29:26.077Z,99390.87
2023-04-26T10:32:17.416Z,99400.56
2023-04-26T10:34:45.638Z,99367.69
2023-04-26T10:37:13.975Z,99377.97
2023-04-26T10:39:42.159Z,99377.97
2023-04-26T10:42:26.654Z,99378.19
2023-04-26T10:44:58.480Z,99379.06
2023-04-26T10:47:37.111Z,99377.38
2023-04-26T10:50:06.197Z,99364.81
2023-04-26T10:52:35.002Z,99374.03
2023-04-26T10:55:02.891Z,99403.94
2023-04-26T10:57:50.415Z,99403.12
2023-04-26T11:00:21.176Z,99401.22
2023-04-26T11:02:59.030Z,99413.41
2023-04-26T11:05:41.061Z,99391.63
2023-04-26T11:08:15.799Z,99389.16
2023-04-26T11:10:45.266Z,99401.09
2023-04-26T11:13:12.674Z,99389.41
2023-04-26T11:15:40.125Z,99391.03
2023-04-26T11:18:07.893Z,99387.50
2023-04-26T11:20:35.647Z,99392.13
2023-04-26T11:23:03.146Z,99381.25
2023-04-26T11:25:31.327Z,99384.78
2023-04-26T11:28:03.116Z,99388.56
2023-04-26T11:30:31.819Z,99400.50
2023-04-26T11:33:00.034Z,99388.78
2023-04-26T11:35:29.538Z,99401.34
2023-04-26T11:38:00.832Z,99400.28
2023-04-26T11:40:29.751Z,99394.84
2023-04-26T11:43:02.450Z,99390.47
2023-04-26T11:45:32.033Z,99385.25
2023-04-26T11:48:01.198Z,99392.00
2023-04-26T11:50:28.729Z,99383.22
2023-04-26T11:52:56.596Z,99394.34
2023-04-26T11:55:25.902Z,99395.84
2023-04-26T11:57:53.344Z,99397.75
2023-04-26T12:00:21.197Z,99404.25
2023-04-26T12:02:49.419Z,99405.53
2023-04-26T12:05:32.469Z,99413.69
2023-04-26T12:08:00.497Z,99398.19
2023-04-26T12:10:36.772Z,99411.22
2023-04-26T12:13:04.498Z,99413.09
2023-04-26T12:15:32.777Z,99404.69
2023-04-26T12:18:08.983Z,99410.38
2023-04-26T12:20:37.934Z,99391.34
2023-04-26T12:23:06.578Z,99396.78
2023-04-26T12:25:34.986Z,99391.34
2023-04-26T12:28:04.452Z,99388.63
2023-04-26T12:30:31.933Z,99398.69
2023-04-26T12:33:15.390Z,99396.78
2023-04-26T12:35:44.692Z,99406.84
2023-04-26T12:38:12.571Z,99406.84
2023-04-26T12:40:40.169Z,99415.00
2023-04-26T12:43:07.966Z,99422.28
2023-04-26T12:45:35.411Z,99419.56
2023-04-26T12:48:02.975Z,99425.00
2023-04-26T12:50:31.274Z,99419.56
2023-04-26T12:52:58.683Z,99422.28
2023-04-26T12:55:26.788Z,99418.75
2023-04-26T12:57:54.532Z,99426.91
2023-04-26T13:00:22.207Z,99426.69
2023-04-26T13:02:49.703Z,99422.28
2023-04-26T13:05:17.610Z,99420.66
2023-04-26T13:07:45.093Z,99433.19
2023-04-26T13:10:13.359Z,99425.88
2023-04-26T13:12:41.122Z,99424.19
2023-04-26T13:15:08.826Z,99426.91
2023-04-26T13:17:39.861Z,99434.03
2023-04-26T13:20:08.014Z,99428.81
2023-04-26T13:22:35.494Z,99435.31
2023-04-26T13:25:03.414Z,99427.72
2023-04-26T13:27:33.199Z,99426.69
2023-04-26T13:30:00.764Z,99430.44
2023-04-26T13:32:29.222Z,99440.44
2023-04-26T13:34:57.083Z,99434.69
2023-04-26T13:37:24.524Z,99443.94
2023-04-26T13:39:51.930Z,99443.16
2023-04-26T13:42:19.627Z,99434.22
2023-04-26T13:44:47.077Z,99438.59
2023-04-26T13:47:14.476Z,99441.12
2023-04-26T13:49:42.221Z,99445.28
2023-04-26T13:52:09.633Z,99448.59
2023-04-26T13:54:37.163Z,99438.34
2023-04-26T13:57:05.034Z,99457.16
2023-04-26T13:59:32.416Z,99441.66
2023-04-26T14:01:59.846Z,99451.69
2023-04-26T14:04:27.799Z,99445.16
2023-04-26T14:06:55.638Z,99454.41
2023-04-26T14:09:23.036Z,99466.59
2023-04-26T14:12:06.646Z,99464.69
2023-04-26T14:14:35.312Z,99464.84
2023-04-26T14:17:03.083Z,99470.16
2023-04-26T14:19:30.533Z,99470.16
2023-04-26T14:21:58.024Z,99470.75
2023-04-26T14:24:25.914Z,99477.88
2023-04-26T14:26:53.364Z,99473.00
2023-04-26T14:29:21.233Z,99476.56
2023-04-26T14:31:48.946Z,99465.41
2023-04-26T14:34:16.676Z,99476.09
2023-04-26T14:36:44.199Z,99469.78
2023-04-26T14:39:11.992Z,99475.25
2023-04-26T14:41:39.440Z,99474.41
2023-04-26T14:44:06.895Z,99479.88
2023-04-26T14:46:35.976Z,99472.75
2023-04-26T14:49:03.449Z,99472.19
2023-04-26T14:51:32.019Z,99481.41
2023-04-26T14:53:59.823Z,99477.88
2023-04-26T14:56:32.154Z,99475.13
2023-04-26T14:59:01.254Z,99474.53
2023-04-26T15:01:28.947Z,99475.81
2023-04-26T15:03:59.315Z,99476.06
2023-04-26T15:06:30.809Z,99464.59
2023-04-26T15:08:58.431Z,99481.16
2023-04-26T15:11:25.884Z,99474.31
2023-04-26T15:13:53.610Z,99476.44
2023-04-26T15:16:21.048Z,99484.03
2023-04-26T15:18:48.482Z,99476.31
2023-04-26T15:21:17.312Z,99481.22
2023-04-26T15:23:45.133Z,99478.69
2023-04-26T15:26:12.650Z,99480.03
2023-04-26T15:28:40.606Z,99489.50
2023-04-26T15:31:08.929Z,99479.91
2023-04-26T15:33:36.528Z,99479.31
2023-04-26T15:36:04.424Z,99476.81
2023-04-26T15:38:32.054Z,99480.00
2023-04-26T15:40:59.517Z,99491.16
2023-04-26T15:43:27.288Z,99489.50
2023-04-26T15:45:55.057Z,99487.25
2023-04-26T15:48:22.602Z,99491.06
2023-04-26T15:50:53.727Z,99487.72
2023-04-26T15:53:21.845Z,99484.41
2023-04-26T15:55:49.321Z,99492.84
2023-04-26T15:58:18.224Z,99493.88
2023-04-26T16:00:46.273Z,99495.78
2023-04-26T16:03:14.089Z,99494.38
2023-04-26T16:05:41.640Z,99492.72
2023-04-26T16:08:09.548Z,99494.84
2023-04-26T16:10:38.437Z,99494.00
2023-04-26T16:13:06.114Z,99504.91
2023-04-26T16:15:33.595Z,99502.19
2023-04-26T16:18:01.519Z,99505.16
2023-04-26T16:20:28.974Z,99512.50
2023-04-26T16:22:56.483Z,99515.22
2023-04-26T16:44:27.390Z,99514.59
2023-04-26T16:46:55.838Z,99516.75
2023-04-26T16:49:23.377Z,99516.75
2023-04-26T16:51:58.828Z,99514.84
2023-04-26T16:54:26.692Z,99515.44
2023-04-26T16:56:54.154Z,99528.00
2023-04-26T16:59:21.607Z,99518.97
2023-04-26T17:01:49.476Z,99525.03
2023-04-26T17:04:17.485Z,99531.31
2023-04-26T17:06:46.131Z,99530.50
2023-04-26T17:09:13.981Z,99532.41
2023-04-26T17:11:43.578Z,99532.97
2023-04-26T17:14:11.223Z,99531.91
2023-04-26T17:16:39.469Z,99529.19
2023-04-26T17:19:07.386Z,99529.19
2023-04-26T17:21:34.886Z,99540.06
2023-04-26T17:24:04.516Z,99537.13
2023-04-26T17:26:32.030Z,99530.03
2023-04-26T17:28:59.449Z,99540.06
2023-04-26T17:31:28.746Z,99540.06
2023-04-26T17:33:56.376Z,99540.31
2023-04-26T17:36:23.966Z,99548.75
2023-04-26T17:38:51.625Z,99549.56
2023-04-26T17:41:19.684Z,99556.91
2023-04-26T17:43:47.263Z,99572.44
2023-04-26T17:46:15.085Z,99564.47
2023-04-26T17:48:42.585Z,99577.28
2023-04-26T17:51:11.489Z,99578.34
2023-04-26T17:53:40.278Z,99582.97
2023-04-26T17:56:10.223Z,99582.13
2023-04-26T17:58:38.382Z,99585.69
2023-04-26T18:01:06.713Z,99592.22
2023-04-26T18:03:36.150Z,99599.56
2023-04-26T18:06:05.774Z,99590.53
2023-04-26T18:08:33.355Z,99590.53
2023-04-26T18:11:01.334Z,99592.22
2023-04-26T18:13:29.153Z,99599.56
2023-04-26T18:16:04.844Z,99600.59
2023-04-26T18:18:32.765Z,99598.69
2023-04-26T18:21:00.559Z,99603.31
2023-04-26T18:23:28.364Z,99609.59
2023-04-26T18:25:56.452Z,99615.28
2023-04-26T18:28:24.158Z,99617.75
2023-04-26T18:31:00.671Z,99619.91
2023-04-26T18:33:29.182Z,99614.44
2023-04-26T18:35:57.136Z,99617.19
2023-04-26T18:38:25.484Z,99623.69
2023-04-26T18:40:53.415Z,99619.31
2023-04-26T18:43:24.701Z,99633.75
2023-04-26T18:45:53.935Z,99632.06
2023-04-26T18:48:21.971Z,99637.53
2023-04-26T18:50:53.267Z,99642.16
2023-04-26T18:53:22.565Z,99648.66
2023-04-26T18:55:54.029Z,99656.00
2023-04-26T18:58:22.547Z,99652.47
2023-04-26T19:00:50.231Z,99659.81
2023-04-26T19:03:19.048Z,99666.06
2023-04-26T19:05:48.360Z,99665.25
2023-04-26T19:08:16.742Z,99656.84
2023-04-26T19:10:45.667Z,99661.47
2023-04-26T19:13:18.156Z,99661.47
2023-04-26T19:15:47.182Z,99657.91
2023-04-26T19:18:16.847Z,99661.69
2023-04-26T19:20:45.643Z,99655.44
2023-04-26T19:23:14.852Z,99657.06
2023-04-26T19:25:43.359Z,99668.19
2023-04-26T19:28:12.881Z,99664.59
2023-04-26T19:30:41.908Z,99661.88
2023-04-26T19:33:09.989Z,99662.94
2023-04-26T19:35:38.021Z,99660.22
2023-04-26T19:38:07.275Z,99663.19
2023-04-26T19:40:35.222Z,99671.34
2023-04-26T19:43:03.097Z,99677.12
2023-04-26T19:45:33.297Z,99671.28
2023-04-26T19:48:02.625Z,99677.22
2023-04-26T19:50:33.572Z,99680.44
2023-04-26T19:53:06.082Z,99675.31
2023-04-26T19:55:38.299Z,99690.22
2023-04-26T19:58:07.383Z,99684.19
2023-04-26T20:00:36.615Z,99677.06
2023-04-26T20:03:06.104Z,99678.75
2023-04-26T20:05:36.280Z,99676.00
2023-04-26T20:08:06.620Z,99674.13
2023-04-26T20:10:35.661Z,99683.34
2023-04-26T20:13:04.995Z,99679.81
2023-04-26T20:15:33.880Z,99684.19
2023-04-26T20:18:02.785Z,99680.97
2023-04-26T20:20:31.271Z,99687.50
2023-04-26T20:23:00.291Z,99683.69
2023-04-26T20:25:29.832Z,99678.25
2023-04-26T20:27:58.236Z,99676.00
2023-04-26T20:30:29.332Z,99672.22
2023-04-26T20:32:57.780Z,99675.19
2023-04-26T20:35:25.773Z,99681.66
2023-04-26T20:37:54.640Z,99683.56
2023-04-26T20:40:23.087Z,99689.00
2023-04-26T20:42:50.628Z,99689.25
2023-04-26T20:45:18.976Z,99687.34
2023-04-26T20:47:47.236Z,99690.06
2023-04-26T20:50:14.799Z,99697.41
2023-04-26T20:52:43.509Z,99691.97
2023-04-26T20:55:11.101Z,99697.66
2023-04-26T20:57:38.648Z,99696.81
2023-04-26T21:00:07.894Z,99707.72
2023-04-26T21:02:35.420Z,99705.19
2023-04-26T21:05:04.678Z,99706.84
2023-04-26T21:07:33.087Z,99706.28
2023-04-26T21:10:00.469Z,99701.88
2023-04-26T21:12:27.861Z,99704.59
2023-04-26T21:14:55.525Z,99713.84
2023-04-26T21:17:23.022Z,99708.59
2023-04-26T21:19:50.932Z,99713.22
2023-04-26T21:22:18.632Z,99716.19
2023-04-26T21:24:46.153Z,99718.66
2023-04-26T21:27:13.561Z,99718.91
2023-04-26T21:29:41.272Z,99725.19
2023-04-26T21:32:08.682Z,99716.38
2023-04-26T21:34:37.303Z,99719.13
2023-04-26T21:37:04.997Z,99721.84
2023-04-26T21:39:32.447Z,99725.63
2023-04-26T21:41:59.852Z,99733.78
2023-04-26T21:44:27.550Z,99733.78
2023-04-26T21:46:54.970Z,99736.75
2023-04-26T21:49:22.453Z,99743.03
2023-04-26T21:51:50.164Z,99739.47
2023-04-26T21:54:17.566Z,99744.91
2023-04-26T21:56:44.985Z,99747.00
2023-04-26T21:59:14.154Z,99749.97
2023-04-26T22:01:41.667Z,99759.78
2023-04-26T22:04:09.454Z,99748.31
2023-04-26T22:06:36.975Z,99757.31
2023-04-26T22:09:04.832Z,99749.37
2023-04-26T22:11:33.697Z,99760.25
2023-04-26T22:14:01.358Z,99759.19
2023-04-26T22:16:28.845Z,99761.94
2023-04-26T22:18:56.577Z,99767.38
2023-04-26T22:21:24.004Z,99764.66
2023-04-26T22:23:51.463Z,99764.87
2023-04-26T22:26:19.170Z,99769.50
2023-04-26T22:28:46.592Z,99774.09
2023-04-26T22:31:14.070Z,99772.44
2023-04-26T22:33:41.772Z,99775.16
2023-04-26T22:36:09.305Z,99771.59
2023-04-26T22:38:36.720Z,99777.03
2023-04-26T22:41:07.199Z,99785.22
2023-04-26T22:43:35.168Z,99780.81
2023-04-26T22:46:02.709Z,99786.28
2023-04-26T22:48:30.827Z,99787.09
2023-04-26T22:50:59.880Z,99784.62
2023-04-26T22:53:27.324Z,99785.44
2023-04-26T22:55:55.068Z,99792.78
2023-04-26T22:58:22.495Z,99788.16
2023-04-26T23:00:50.001Z,99786.28
2023-04-26T23:03:17.849Z,99786.28
2023-04-26T23:05:47.209Z,99796.91
2023-04-26T23:08:14.617Z,99795.25
2023-04-26T23:10:42.393Z,99805.09
2023-04-26T23:13:09.825Z,99805.91
2023-04-26T23:15:37.226Z,99806.97
2023-04-26T23:18:05.361Z,99797.97
2023-04-26T23:20:32.876Z,99798.81
2023-04-26T23:23:00.297Z,99803.44
2023-04-26T23:25:27.999Z,99797.97
2023-04-26T23:27:55.455Z,99813.25
2023-04-26T23:30:22.870Z,99816.22
2023-04-26T23:32:50.660Z,99821.66
2023-04-26T23:35:18.084Z,99825.19
2023-04-26T23:37:45.738Z,99820.81
2023-04-26T23:40:13.732Z,99821.66
2023-04-26T23:42:41.395Z,99831.72
2023-04-26T23:45:09.781Z,99824.38
2023-04-26T23:47:37.582Z,99821.88
2023-04-26T23:50:05.552Z,99825.63
2023-04-26T23:52:33.019Z,99818.53
2023-04-26T23:55:00.744Z,99822.91
2023-04-26T23:57:28.146Z,99821.50
2023-04-26T23:59:55.707Z,99817.13
